Time;durP1;ratioP1;P1;durP2;ratioP2;P2;SDS_P1;SDS_P2;PMS_P1;PMS_P2;Temp;Humidity;BMP_temperature;BMP_pressure;BME280_temperature;BME280_humidity;BME280_pressure;Samples;Min_cycle;Max_cycle;Signal;HPM_P1;HPM_P2
2022/02/21 00:00:21;;;;;;;25.17;3.33;;;;;;;5.88;73.34;99696.47;5046509;28;20056;-59
2022/02/21 00:02:49;;;;;;;21.85;2.97;;;;;;;5.89;73.32;99729.53;5048176;28;20068;-57
2022/02/21 00:05:15;;;;;;;13.98;2.78;;;;;;;5.89;73.03;99745.22;5045902;28;20056;-60
2022/02/21 00:07:41;;;;;;;16.80;2.72;;;;;;;5.81;72.34;99745.50;5047807;28;20049;-58
2022/02/21 00:10:08;;;;;;;20.23;3.20;;;;;;;5.82;72.03;99755.88;5047682;28;20029;-56
2022/02/21 00:12:34;;;;;;;16.05;2.20;;;;;;;5.81;72.37;99741.09;5048139;28;20020;-56
2022/02/21 00:15:00;;;;;;;22.27;3.33;;;;;;;5.75;72.52;99751.75;5047076;28;20032;-57
2022/02/21 00:17:25;;;;;;;36.03;3.70;;;;;;;5.72;71.26;99764.91;5047846;28;20037;-56
2022/02/21 00:19:50;;;;;;;13.73;2.78;;;;;;;5.72;71.25;99790.22;5047709;28;20096;-57
2022/02/21 00:22:16;;;;;;;13.55;2.60;;;;;;;5.67;70.36;99830.44;5046749;28;20072;-57
2022/02/21 00:24:41;;;;;;;21.77;3.67;;;;;;;5.65;71.18;99771.25;5046602;28;20125;-60
2022/02/21 00:27:06;;;;;;;22.95;3.47;;;;;;;5.57;70.14;99814.13;5046747;28;20084;-59
2022/02/21 00:29:32;;;;;;;21.70;2.90;;;;;;;5.56;70.16;99851.63;5047138;28;20029;-58
2022/02/21 00:31:57;;;;;;;24.08;3.03;;;;;;;5.57;69.99;99839.44;5046225;28;20021;-58
2022/02/21 00:34:22;;;;;;;17.20;2.65;;;;;;;5.59;70.09;99815.84;5047823;28;20025;-58
2022/02/21 00:36:48;;;;;;;15.82;3.22;;;;;;;5.56;69.67;99788.91;5047739;28;20028;-58
2022/02/21 00:39:13;;;;;;;22.48;2.95;;;;;;;5.59;70.77;99801.03;5048108;28;20301;-58
2022/02/21 00:41:38;;;;;;;18.45;3.05;;;;;;;5.61;71.17;99807.09;5047072;28;20044;-59
2022/02/21 00:44:04;;;;;;;15.32;2.95;;;;;;;5.54;70.85;99814.22;5047499;28;20569;-57
2022/02/21 00:46:29;;;;;;;14.98;2.53;;;;;;;5.55;70.10;99817.72;5045897;28;20029;-57
2022/02/21 00:48:55;;;;;;;19.77;3.45;;;;;;;5.52;69.91;99826.50;5047555;28;20107;-57
2022/02/21 00:51:20;;;;;;;12.98;2.25;;;;;;;5.53;69.50;99848.25;5047632;28;20467;-60
2022/02/21 00:53:45;;;;;;;17.63;2.30;;;;;;;5.47;68.97;99862.34;5047741;28;20044;-58
2022/02/21 00:56:11;;;;;;;11.48;2.10;;;;;;;5.46;69.17;99889.38;5048297;28;20534;-57
2022/02/21 00:58:36;;;;;;;11.15;2.90;;;;;;;5.40;67.27;99863.44;5047490;28;20133;-57
2022/02/21 01:01:01;;;;;;;15.90;2.40;;;;;;;5.37;67.40;99845.22;5045012;28;20616;-56
2022/02/21 01:03:26;;;;;;;15.77;2.35;;;;;;;5.43;67.93;99855.50;5047122;28;20029;-58
2022/02/21 01:05:52;;;;;;;12.55;2.70;;;;;;;5.47;68.65;99864.97;5046856;28;20075;-55
2022/02/21 01:08:17;;;;;;;18.90;2.42;;;;;;;5.54;68.00;99860.44;5034769;28;20475;-59
2022/02/21 01:10:43;;;;;;;13.98;2.65;;;;;;;5.54;66.71;99897.00;5046776;28;20044;-59
2022/02/21 01:13:08;;;;;;;17.05;2.85;;;;;;;5.46;65.82;99902.44;5030735;28;20022;-58
2022/02/21 01:15:34;;;;;;;11.95;2.42;;;;;;;5.47;66.65;99877.16;5038453;28;20111;-58
2022/02/21 01:17:59;;;;;;;20.95;2.88;;;;;;;5.48;67.42;99861.44;5030774;28;20102;-58
2022/02/21 01:20:25;;;;;;;19.02;3.05;;;;;;;5.41;65.95;99866.00;5035134;28;20036;-58
2022/02/21 01:22:50;;;;;;;27.13;3.55;;;;;;;5.42;65.93;99896.44;5036761;28;20102;-57
2022/02/21 01:25:16;;;;;;;20.35;3.60;;;;;;;5.46;67.00;99875.44;5031153;28;20053;-60
2022/02/21 01:27:41;;;;;;;21.05;2.60;;;;;;;5.44;66.30;99959.09;5031696;28;20022;-58
2022/02/21 01:30:08;;;;;;;22.92;4.15;;;;;;;5.46;65.89;99899.84;5037496;28;20026;-58
2022/02/21 01:32:34;;;;;;;20.55;2.97;;;;;;;5.46;67.12;99920.75;5045881;28;20110;-58
2022/02/21 01:34:59;;;;;;;27.55;3.40;;;;;;;5.40;67.51;99940.06;5038621;28;20077;-59
2022/02/21 01:37:25;;;;;;;26.67;3.80;;;;;;;5.38;67.54;99881.75;5037370;28;20477;-59
2022/02/21 01:39:50;;;;;;;22.45;3.83;;;;;;;5.39;66.78;99914.81;5050309;28;20032;-59
2022/02/21 01:42:15;;;;;;;18.55;2.53;;;;;;;5.41;66.34;99925.22;5044384;28;20025;-60
2022/02/21 01:44:43;;;;;;;13.60;2.78;;;;;;;5.38;66.61;99954.03;5039601;28;20025;-58
2022/02/21 01:47:10;;;;;;;17.65;2.33;;;;;;;5.36;65.70;99907.06;5049874;28;20017;-58
2022/02/21 01:49:36;;;;;;;16.45;3.10;;;;;;;5.41;66.00;99964.41;5050758;28;20539;-58
2022/02/21 01:52:03;;;;;;;31.50;4.60;;;;;;;5.41;65.61;99930.44;5050632;28;20100;-58
2022/02/21 01:54:29;;;;;;;16.63;2.58;;;;;;;5.34;64.44;99921.06;5043236;28;20032;-60
2022/02/21 01:56:55;;;;;;;19.42;2.65;;;;;;;5.31;63.49;99946.38;5041551;28;20100;-59
2022/02/21 01:59:20;;;;;;;17.88;2.38;;;;;;;5.35;63.97;99964.56;5049593;28;20598;-60
2022/02/21 02:01:46;;;;;;;16.75;3.40;;;;;;;5.34;63.76;99952.41;5050053;28;20054;-61
2022/02/21 02:04:12;;;;;;;15.20;2.88;;;;;;;5.31;63.74;99922.00;5050965;28;20044;-58
2022/02/21 02:06:37;;;;;;;30.55;3.05;;;;;;;5.34;62.79;99937.59;5050238;28;20411;-59
2022/02/21 02:09:03;;;;;;;18.33;2.97;;;;;;;5.34;62.67;99975.94;5061679;28;20125;-59
2022/02/21 02:11:29;;;;;;;17.73;2.60;;;;;;;5.35;61.41;99951.50;5136860;22;20056;-59
2022/02/21 02:13:54;;;;;;;20.77;3.15;;;;;;;5.38;61.48;99943.59;5048414;28;20029;-60
2022/02/21 02:16:20;;;;;;;19.42;4.43;;;;;;;5.44;62.03;99927.75;5048622;28;20075;-59
2022/02/21 02:18:47;;;;;;;24.77;3.20;;;;;;;5.43;62.62;99911.25;5049182;28;20447;-60
2022/02/21 02:21:15;;;;;;;14.80;2.58;;;;;;;5.38;61.71;99938.38;5049653;28;20383;-59
2022/02/21 02:23:41;;;;;;;15.95;3.58;;;;;;;5.44;62.03;99990.47;5049657;28;20025;-58
2022/02/21 02:26:06;;;;;;;22.70;3.00;;;;;;;5.44;61.81;99946.03;5048926;28;20095;-59
2022/02/21 02:28:31;;;;;;;21.20;3.10;;;;;;;5.45;61.90;99921.66;5048962;28;20417;-59
2022/02/21 02:30:57;;;;;;;16.17;3.30;;;;;;;5.44;61.54;99928.63;5055945;28;20021;-60
2022/02/21 02:33:22;;;;;;;19.45;4.13;;;;;;;5.52;62.08;99931.03;5051948;28;20031;-59
2022/02/21 02:35:47;;;;;;;9.98;2.17;;;;;;;5.47;61.11;99904.16;5046978;28;20025;-60
2022/02/21 02:38:13;;;;;;;12.02;2.53;;;;;;;5.46;60.96;99972.13;5045585;28;20031;-60
2022/02/21 02:40:38;;;;;;;14.23;2.22;;;;;;;5.41;60.42;99923.47;5028812;28;20033;-60
2022/02/21 02:43:03;;;;;;;17.75;2.25;;;;;;;5.42;60.79;99966.16;5046454;28;20106;-60
2022/02/21 02:45:29;;;;;;;12.88;2.47;;;;;;;5.39;60.07;99933.09;5047140;28;20025;-60
2022/02/21 02:47:54;;;;;;;20.70;3.53;;;;;;;5.37;60.56;99918.38;5048440;28;20041;-59
2022/02/21 02:50:20;;;;;;;10.30;2.28;;;;;;;5.35;59.95;99969.78;5048526;28;20752;-60
2022/02/21 02:52:45;;;;;;;17.23;3.45;;;;;;;5.38;61.98;99944.47;5047762;28;20035;-61
2022/02/21 02:55:10;;;;;;;19.83;2.60;;;;;;;5.39;62.37;99966.22;5048423;28;20090;-59
2022/02/21 02:57:36;;;;;;;18.77;2.63;;;;;;;5.33;62.22;99945.47;5046748;28;20029;-61
2022/02/21 03:00:01;;;;;;;21.27;3.42;;;;;;;5.25;60.43;99974.41;5047322;28;20064;-61
2022/02/21 03:02:26;;;;;;;15.82;2.78;;;;;;;5.28;61.98;99951.69;5048612;28;20055;-58
2022/02/21 03:04:52;;;;;;;16.50;2.70;;;;;;;5.25;62.00;99975.28;5048349;28;20541;-59
2022/02/21 03:07:17;;;;;;;21.92;3.53;;;;;;;5.21;62.01;99928.38;5048086;28;20033;-60
2022/02/21 03:09:43;;;;;;;15.57;2.72;;;;;;;5.22;60.88;99937.91;5052857;28;20032;-59
2022/02/21 03:12:08;;;;;;;21.15;3.17;;;;;;;5.23;60.13;99995.34;5031371;28;1050418;-58
2022/02/21 03:14:34;;;;;;;16.33;2.58;;;;;;;5.23;60.69;99964.00;5066125;28;20139;-59
2022/02/21 03:16:59;;;;;;;19.80;2.80;;;;;;;5.21;61.20;100004.97;5068631;28;20032;-59
2022/02/21 03:19:25;;;;;;;26.02;4.00;;;;;;;5.18;62.75;99969.34;5068690;28;20025;-59
2022/02/21 03:21:52;;;;;;;23.95;3.15;;;;;;;5.10;61.62;99983.50;5049222;28;20037;-59
2022/02/21 03:24:17;;;;;;;18.75;3.63;;;;;;;5.12;61.31;99963.44;5048565;28;20056;-59
2022/02/21 03:26:43;;;;;;;18.60;3.22;;;;;;;5.12;61.29;99937.31;5048537;28;20494;-59
2022/02/21 03:29:08;;;;;;;23.17;4.18;;;;;;;5.14;62.79;99961.63;5047757;28;20476;-59
2022/02/21 03:31:33;;;;;;;14.80;2.80;;;;;;;5.08;62.49;99933.06;5048543;28;20181;-60
2022/02/21 03:33:59;;;;;;;19.83;3.65;;;;;;;5.04;60.61;99972.31;5048237;28;20379;-59
2022/02/21 03:36:24;;;;;;;17.80;2.95;;;;;;;5.07;60.78;99947.88;5047384;28;20440;-61
2022/02/21 03:38:49;;;;;;;16.73;2.67;;;;;;;5.05;59.96;99942.69;5047700;28;20028;-59
2022/02/21 03:41:15;;;;;;;14.57;2.63;;;;;;;5.07;60.03;99947.88;5047586;28;20116;-62
2022/02/21 03:43:40;;;;;;;17.70;2.40;;;;;;;5.05;60.69;99936.59;5047847;28;20021;-59
2022/02/21 03:46:06;;;;;;;9.20;1.98;;;;;;;5.00;59.61;99938.47;5046369;28;20464;-58
2022/02/21 03:48:31;;;;;;;12.85;2.22;;;;;;;4.98;58.67;99938.53;5048256;28;20029;-59
2022/02/21 03:50:56;;;;;;;11.75;2.65;;;;;;;4.98;59.04;99950.72;5048304;28;20026;-59
2022/02/21 03:53:21;;;;;;;17.58;2.53;;;;;;;4.98;58.61;99948.09;5047070;28;20021;-60
2022/02/21 03:55:47;;;;;;;17.13;2.42;;;;;;;4.99;60.47;99950.66;5048097;28;20360;-59
2022/02/21 03:58:12;;;;;;;17.52;2.92;;;;;;;4.96;59.80;99948.13;5048642;28;20479;-64
2022/02/21 04:00:38;;;;;;;14.13;1.88;;;;;;;4.96;59.70;99979.47;5047345;28;20037;-59
2022/02/21 04:03:03;;;;;;;15.15;2.30;;;;;;;4.95;60.17;99956.88;5048101;28;20435;-65
2022/02/21 04:05:28;;;;;;;19.00;2.80;;;;;;;4.99;60.41;99945.44;5048176;28;20115;-62
2022/02/21 04:07:54;;;;;;;15.30;2.65;;;;;;;4.96;61.41;99932.47;5047828;28;20029;-59
2022/02/21 04:10:19;;;;;;;14.45;3.08;;;;;;;4.92;61.38;99938.66;5039835;28;20032;-61
2022/02/21 04:12:44;;;;;;;13.25;2.70;;;;;;;4.87;60.91;99923.13;5027149;28;20422;-62
2022/02/21 04:15:11;;;;;;;12.18;2.30;;;;;;;4.84;62.09;99954.50;5025981;28;20049;-59
2022/02/21 04:17:50;;;;;;;22.27;3.15;;;;;;;4.78;61.53;99996.41;5026064;28;20039;-61
2022/02/21 04:20:19;;;;;;;15.48;3.00;;;;;;;4.85;61.99;99950.16;5028115;28;20100;-62
2022/02/21 04:22:45;;;;;;;15.02;2.45;;;;;;;4.86;61.08;99938.81;5027681;28;20022;-61
2022/02/21 04:25:11;;;;;;;9.82;1.95;;;;;;;4.83;61.56;99933.66;5028136;28;20037;-61
2022/02/21 04:27:44;;;;;;;13.85;2.15;;;;;;;4.84;61.60;99930.19;5027693;28;20036;-59
2022/02/21 04:30:10;;;;;;;15.13;2.53;;;;;;;4.75;61.07;99919.06;5027781;28;20037;-60
2022/02/21 04:32:38;;;;;;;15.30;2.47;;;;;;;4.76;62.18;99949.47;5010138;28;20510;-61
2022/02/21 04:35:04;;;;;;;19.27;3.08;;;;;;;4.78;61.97;99955.53;5027631;28;20044;-61
2022/02/21 04:37:29;;;;;;;13.80;1.90;;;;;;;4.78;62.17;99933.78;5027787;28;20083;-59
2022/02/21 04:39:55;;;;;;;10.85;2.55;;;;;;;4.78;62.98;99965.09;5044670;28;20030;-59
2022/02/21 04:42:20;;;;;;;24.20;2.75;;;;;;;4.83;63.73;99951.94;5046558;28;20048;-60
2022/02/21 04:44:45;;;;;;;20.95;3.03;;;;;;;4.90;64.23;99919.56;5045859;28;20117;-60
2022/02/21 04:47:11;;;;;;;18.75;3.25;;;;;;;4.88;64.82;99968.38;5052429;28;20409;-60
2022/02/21 04:49:36;;;;;;;22.63;4.00;;;;;;;4.91;63.98;99986.56;5051787;28;20088;-60
2022/02/21 04:52:01;;;;;;;20.15;2.85;;;;;;;4.94;64.55;99963.00;5051791;28;20170;-58
2022/02/21 04:54:26;;;;;;;16.70;3.53;;;;;;;4.95;65.24;99940.34;5051331;28;20025;-60
2022/02/21 04:56:52;;;;;;;13.90;3.10;;;;;;;4.84;64.69;99936.25;5051474;28;20078;-60
2022/02/21 04:59:17;;;;;;;16.95;2.97;;;;;;;4.80;65.00;99905.91;5049394;28;20028;-59
2022/02/21 05:01:42;;;;;;;22.23;3.00;;;;;;;4.76;64.90;99915.53;5051714;28;20086;-59
2022/02/21 05:04:08;;;;;;;33.03;3.90;;;;;;;4.66;64.50;99950.59;5050359;28;20025;-58
2022/02/21 05:06:33;;;;;;;10.82;2.38;;;;;;;4.64;64.34;99973.28;5050171;28;20561;-60
2022/02/21 05:08:58;;;;;;;19.20;2.58;;;;;;;4.65;64.27;99914.97;5050638;28;20041;-60
2022/02/21 05:11:24;;;;;;;18.40;3.00;;;;;;;4.61;64.93;99903.72;5049288;28;20537;-60
2022/02/21 05:13:49;;;;;;;21.70;3.03;;;;;;;4.59;63.50;99944.69;5048420;28;20132;-60
2022/02/21 05:16:14;;;;;;;21.23;3.78;;;;;;;4.64;64.59;99900.22;5050957;28;20021;-61
2022/02/21 05:18:40;;;;;;;24.35;2.95;;;;;;;4.55;65.15;99881.25;5050966;28;20029;-60
2022/02/21 05:21:05;;;;;;;15.40;2.80;;;;;;;4.50;64.52;99896.19;5050819;28;20029;-59
2022/02/21 05:23:30;;;;;;;22.58;3.22;;;;;;;4.54;63.18;99926.50;5051044;28;20483;-61
2022/02/21 05:25:56;;;;;;;15.15;2.97;;;;;;;4.60;62.78;99958.59;5050276;28;20025;-59
2022/02/21 05:28:21;;;;;;;18.30;4.03;;;;;;;4.59;62.94;99949.88;5050838;28;20029;-57
2022/02/21 05:30:46;;;;;;;22.15;3.15;;;;;;;4.56;62.88;99926.47;5049805;28;20028;-59
2022/02/21 05:33:13;;;;;;;14.38;2.80;;;;;;;4.62;61.70;99920.25;5050936;28;20127;-60
2022/02/21 05:35:38;;;;;;;13.13;2.70;;;;;;;4.66;61.55;99908.84;5051062;28;20037;-59
2022/02/21 05:38:04;;;;;;;13.88;2.70;;;;;;;4.73;62.31;99894.75;5050667;28;20811;-59
2022/02/21 05:40:29;;;;;;;17.30;2.80;;;;;;;4.71;62.21;99903.50;5049444;28;20490;-60
2022/02/21 05:42:54;;;;;;;18.13;2.83;;;;;;;4.70;61.72;99900.06;5050570;28;20402;-60
2022/02/21 05:45:20;;;;;;;18.00;3.10;;;;;;;4.71;61.95;99891.31;5049978;28;20467;-61
2022/02/21 05:47:45;;;;;;;19.13;3.70;;;;;;;4.73;61.98;99888.69;5049360;28;20017;-60
2022/02/21 05:50:10;;;;;;;18.70;2.83;;;;;;;4.72;62.80;99893.03;5050335;28;20467;-60
2022/02/21 05:52:36;;;;;;;18.45;2.22;;;;;;;4.71;62.60;99903.50;5048683;28;20521;-58
2022/02/21 05:55:01;;;;;;;14.98;3.05;;;;;;;4.67;62.57;99876.66;5049291;28;20032;-59
2022/02/21 05:57:28;;;;;;;16.02;2.75;;;;;;;4.74;62.45;99866.91;5049853;28;20029;-61
2022/02/21 05:59:53;;;;;;;18.25;3.30;;;;;;;4.74;63.27;99859.94;5046964;28;20033;-60
2022/02/21 06:02:19;;;;;;;12.35;3.40;;;;;;;4.68;63.36;99935.75;5048400;28;20075;-59
2022/02/21 06:04:44;;;;;;;20.52;3.20;;;;;;;4.71;63.10;99887.84;5047011;28;20033;-62
2022/02/21 06:07:09;;;;;;;19.85;2.75;;;;;;;4.67;62.31;99880.09;5048570;28;20036;-60
2022/02/21 06:09:35;;;;;;;18.90;2.90;;;;;;;4.70;62.52;99873.09;5049032;28;20035;-60
2022/02/21 06:12:01;;;;;;;12.38;2.30;;;;;;;4.74;62.61;99895.59;5049144;28;20051;-59
2022/02/21 06:14:26;;;;;;;16.85;2.85;;;;;;;4.74;63.31;99869.50;5047212;28;20493;-60
2022/02/21 06:16:51;;;;;;;20.80;3.53;;;;;;;4.67;63.55;99842.72;5042228;28;20018;-59
2022/02/21 06:19:19;;;;;;;19.35;3.00;;;;;;;4.61;63.90;99866.34;5046119;28;20021;-59
2022/02/21 06:21:44;;;;;;;18.35;3.67;;;;;;;4.61;63.87;99882.00;5040889;28;20383;-62
2022/02/21 06:24:09;;;;;;;18.40;3.33;;;;;;;4.66;63.88;99856.66;5048580;28;20036;-59
2022/02/21 06:26:35;;;;;;;22.20;3.55;;;;;;;4.67;64.31;99876.66;5046266;28;20033;-62
2022/02/21 06:29:00;;;;;;;18.70;2.83;;;;;;;4.61;63.90;99855.91;5041098;28;20032;-61
2022/02/21 06:31:25;;;;;;;13.23;2.80;;;;;;;4.62;64.53;99873.28;5039724;28;20100;-61
2022/02/21 06:33:51;;;;;;;19.02;3.85;;;;;;;4.59;64.09;99870.75;5037400;28;20032;-62
2022/02/21 06:36:16;;;;;;;21.90;3.45;;;;;;;4.61;63.85;99848.94;5039088;28;20053;-60
2022/02/21 06:38:42;;;;;;;28.95;3.20;;;;;;;4.61;63.49;99874.19;5041401;28;20018;-62
2022/02/21 06:41:07;;;;;;;18.73;2.83;;;;;;;4.65;64.06;99871.47;5046376;28;20097;-61
2022/02/21 06:43:32;;;;;;;22.35;4.28;;;;;;;4.66;64.25;99851.44;5045993;28;20024;-61
2022/02/21 06:45:58;;;;;;;26.58;3.55;;;;;;;4.68;64.04;99831.38;5048539;28;20023;-62
2022/02/21 06:48:24;;;;;;;24.67;3.33;;;;;;;4.72;64.42;99826.94;5047075;28;20120;-61
2022/02/21 06:50:50;;;;;;;18.80;3.03;;;;;;;4.79;64.16;99836.34;5045926;28;20073;-60
2022/02/21 06:53:15;;;;;;;31.73;3.65;;;;;;;4.85;64.28;99838.75;5045378;28;20009;-60
2022/02/21 06:55:40;;;;;;;12.57;2.78;;;;;;;4.87;64.11;99834.38;5038661;28;20107;-51
2022/02/21 06:58:06;;;;;;;18.00;2.88;;;;;;;4.86;64.06;99816.13;5045548;28;20041;-59
2022/02/21 07:00:31;;;;;;;15.77;2.88;;;;;;;4.92;64.25;99835.13;5046631;28;20052;-56
2022/02/21 07:02:56;;;;;;;14.35;2.83;;;;;;;4.93;64.61;99823.75;5040604;28;20087;-58
2022/02/21 07:05:21;;;;;;;19.30;2.75;;;;;;;4.95;64.73;99815.88;5028343;28;20056;-60
2022/02/21 07:07:47;;;;;;;20.67;3.00;;;;;;;4.96;64.29;99838.47;5027382;28;20072;-58
2022/02/21 07:10:12;;;;;;;25.27;3.35;;;;;;;5.03;64.03;99808.69;5030927;28;20021;-57
2022/02/21 07:12:38;;;;;;;17.17;2.90;;;;;;;5.12;63.85;99811.97;5043803;28;20090;-57
2022/02/21 07:15:04;;;;;;;17.17;2.85;;;;;;;5.08;63.79;99794.69;5045630;28;20497;-58
2022/02/21 07:17:36;;;;;;;22.67;3.53;;;;;;;5.20;63.85;99833.47;5046931;28;20052;-59
2022/02/21 07:20:01;;;;;;;16.90;2.95;;;;;;;5.23;64.13;99806.41;5037768;28;20505;-60
2022/02/21 07:22:27;;;;;;;13.40;2.63;;;;;;;5.30;63.85;99793.16;5041298;28;20025;-56
2022/02/21 07:24:52;;;;;;;17.90;3.10;;;;;;;5.30;63.42;99795.75;5039074;28;20032;-55
2022/02/21 07:27:17;;;;;;;21.98;3.13;;;;;;;5.41;63.23;99787.63;5037547;28;20078;-56
2022/02/21 07:29:43;;;;;;;22.35;3.60;;;;;;;5.52;62.30;99789.91;5037347;28;20437;-57
2022/02/21 07:32:08;;;;;;;17.50;3.45;;;;;;;5.64;62.79;99795.66;5028871;28;20021;-60
2022/02/21 07:34:33;;;;;;;21.25;3.58;;;;;;;5.63;62.57;99796.59;5044925;28;20535;-60
2022/02/21 07:36:59;;;;;;;14.05;3.20;;;;;;;5.68;62.80;99789.44;5047829;28;20532;-62
2022/02/21 07:39:24;;;;;;;15.52;3.15;;;;;;;5.73;62.52;99776.22;5047642;28;20031;-60
2022/02/21 07:41:50;;;;;;;22.05;3.25;;;;;;;5.74;62.38;99765.72;5046410;28;20021;-61
2022/02/21 07:44:16;;;;;;;19.23;2.72;;;;;;;5.66;63.22;99765.97;5043267;28;20098;-60
2022/02/21 07:46:41;;;;;;;20.70;2.88;;;;;;;5.70;62.79;99758.91;5039357;28;20017;-61
2022/02/21 07:49:06;;;;;;;20.67;3.20;;;;;;;5.76;63.66;99760.47;5036580;28;20491;-59
2022/02/21 07:51:32;;;;;;;19.30;4.07;;;;;;;5.71;64.06;99767.56;5040264;28;20025;-60
2022/02/21 07:53:57;;;;;;;33.08;4.70;;;;;;;5.68;65.10;99771.16;5035904;28;20013;-60
2022/02/21 07:56:23;;;;;;;23.15;4.40;;;;;;;5.58;67.11;99760.13;5036060;28;20497;-60
2022/02/21 07:58:48;;;;;;;30.75;5.18;;;;;;;5.34;68.96;99791.31;5035133;28;20685;-59
2022/02/21 08:01:13;;;;;;;19.70;3.72;;;;;;;5.19;69.49;99758.66;5037213;28;20382;-61
2022/02/21 08:03:39;;;;;;;26.75;4.32;;;;;;;5.06;70.86;99752.94;5036281;28;20048;-59
2022/02/21 08:06:10;;;;;;;23.48;3.72;;;;;;;5.02;71.09;99730.41;5041652;28;20108;-62
2022/02/21 08:08:35;;;;;;;20.42;2.88;;;;;;;4.93;72.39;99739.34;5035492;28;20121;-59
2022/02/21 08:11:01;;;;;;;26.17;4.43;;;;;;;4.82;72.77;99730.97;5038082;28;20457;-60
2022/02/21 08:13:26;;;;;;;23.95;4.07;;;;;;;4.71;73.36;99724.31;5035506;28;20495;-60
2022/02/21 08:15:51;;;;;;;21.65;4.15;;;;;;;4.61;74.06;99707.19;5043142;28;20612;-61
2022/02/21 08:18:17;;;;;;;32.75;3.90;;;;;;;4.57;75.14;99731.66;5046886;28;20029;-59
2022/02/21 08:20:42;;;;;;;28.20;4.30;;;;;;;4.52;75.93;99714.34;5047174;28;20025;-60
2022/02/21 08:23:08;;;;;;;16.90;3.78;;;;;;;4.48;76.77;99709.28;5046181;28;20548;-61
2022/02/21 08:25:33;;;;;;;24.45;3.38;;;;;;;4.42;77.60;99673.75;5029049;28;20021;-59
2022/02/21 08:27:58;;;;;;;29.75;4.25;;;;;;;4.34;78.50;99694.00;5025904;28;20021;-60
2022/02/21 08:30:24;;;;;;;27.55;3.63;;;;;;;4.27;78.78;99703.72;5040373;28;20032;-60
2022/02/21 08:32:50;;;;;;;30.27;4.07;;;;;;;4.24;78.99;99691.63;5047308;28;20029;-60
2022/02/21 08:35:16;;;;;;;21.13;4.15;;;;;;;4.23;79.07;99723.81;5047282;28;20025;-60
2022/02/21 08:37:42;;;;;;;35.25;4.65;;;;;;;4.25;79.29;99698.53;5043414;28;20016;-61
2022/02/21 08:40:12;;;;;;;25.35;3.75;;;;;;;4.26;79.55;99692.44;5035860;28;20388;-62
2022/02/21 08:42:39;;;;;;;29.48;4.30;;;;;;;4.26;80.49;99661.16;5034757;28;20135;-58
2022/02/21 08:45:05;;;;;;;30.65;4.18;;;;;;;4.30;79.79;99673.22;5036135;28;20647;-59
2022/02/21 08:47:30;;;;;;;32.38;4.45;;;;;;;4.32;79.73;99669.69;5035739;28;20022;-60
2022/02/21 08:49:56;;;;;;;20.33;3.45;;;;;;;4.38;78.89;99706.91;5033267;28;20528;-58
2022/02/21 08:52:21;;;;;;;27.80;4.45;;;;;;;4.41;79.12;99675.53;5027231;28;20435;-60
2022/02/21 08:54:47;;;;;;;45.92;4.55;;;;;;;4.47;78.75;99671.91;5027494;28;20029;-58
2022/02/21 08:57:12;;;;;;;35.78;6.43;;;;;;;4.47;79.28;99713.63;5045562;28;20021;-56
2022/02/21 08:59:38;;;;;;;24.42;3.40;;;;;;;4.48;78.97;99664.94;5046227;28;20121;-56
2022/02/21 09:02:03;;;;;;;42.60;5.32;;;;;;;4.48;79.84;99657.94;5048856;28;20025;-55
2022/02/21 09:04:29;;;;;;;29.88;4.78;;;;;;;4.50;79.45;99635.28;5045915;28;20056;-57
2022/02/21 09:06:54;;;;;;;27.67;5.30;;;;;;;4.55;79.26;99620.34;5044288;28;20395;-57
2022/02/21 09:09:22;;;;;;;37.45;5.22;;;;;;;4.58;79.30;99640.31;5046982;28;20037;-55
2022/02/21 09:11:48;;;;;;;31.13;5.32;;;;;;;4.65;78.83;99631.41;5044755;28;20077;-56
2022/02/21 09:14:13;;;;;;;31.75;4.95;;;;;;;4.70;78.59;99622.56;5046468;28;20467;-56
2022/02/21 09:16:38;;;;;;;37.85;6.10;;;;;;;4.73;77.59;99627.72;5046984;28;20099;-57
2022/02/21 09:19:04;;;;;;;35.45;4.68;;;;;;;4.76;78.16;99631.06;5046551;28;20064;-55
2022/02/21 09:21:29;;;;;;;33.13;4.85;;;;;;;4.86;77.83;99602.09;5045231;28;20020;-54
2022/02/21 09:23:54;;;;;;;39.03;4.97;;;;;;;4.87;78.41;99624.66;5045684;28;20064;-55
2022/02/21 09:26:20;;;;;;;27.83;4.25;;;;;;;4.91;78.25;99653.25;5045824;28;20024;-55
2022/02/21 09:28:45;;;;;;;30.77;5.55;;;;;;;4.89;78.11;99642.00;5046144;28;20029;-59
2022/02/21 09:31:10;;;;;;;30.55;5.25;;;;;;;4.85;78.80;99655.19;5046764;28;20047;-57
2022/02/21 09:33:36;;;;;;;33.38;4.45;;;;;;;4.85;80.21;99631.72;5050250;28;20536;-56
2022/02/21 09:36:01;;;;;;;37.08;5.13;;;;;;;4.80;80.17;99627.50;5050218;28;20025;-56
2022/02/21 09:38:27;;;;;;;44.08;6.45;;;;;;;4.74;80.36;99606.78;5050162;28;20021;-56
2022/02/21 09:40:54;;;;;;;32.50;5.75;;;;;;;4.74;80.85;99629.41;5050924;28;20125;-55
2022/02/21 09:43:30;;;;;;;31.70;5.40;;;;;;;4.75;81.03;99616.31;5069439;28;20028;-57
2022/02/21 09:46:00;;;;;;;18.92;3.80;;;;;;;4.73;79.45;99685.94;5069329;28;20020;-55
2022/02/21 09:48:27;;;;;;;26.27;4.82;;;;;;;4.84;79.83;99636.06;5070442;28;20459;-58
2022/02/21 09:50:58;;;;;;;25.55;3.95;;;;;;;4.90;78.50;99651.53;5060587;28;20392;-60
2022/02/21 09:53:25;;;;;;;33.25;6.15;;;;;;;5.00;78.64;99594.69;5041243;28;20063;-62
2022/02/21 09:55:51;;;;;;;32.30;4.55;;;;;;;5.06;78.55;99604.94;5038707;28;20026;-61
2022/02/21 09:58:16;;;;;;;39.97;4.70;;;;;;;5.18;78.59;99613.31;5039496;28;20024;-61
2022/02/21 10:00:41;;;;;;;36.30;4.78;;;;;;;5.20;77.99;99595.81;5038818;28;20025;-62
2022/02/21 10:03:07;;;;;;;32.85;4.63;;;;;;;5.29;77.37;99590.31;5038796;28;20019;-60
2022/02/21 10:05:32;;;;;;;36.08;4.50;;;;;;;5.34;77.27;99578.84;5039236;28;20028;-62
2022/02/21 10:08:00;;;;;;;33.58;5.28;;;;;;;5.37;76.90;99600.53;5037617;28;20026;-62
2022/02/21 10:10:26;;;;;;;51.15;7.10;;;;;;;5.44;77.33;99583.75;5032656;28;20475;-63
2022/02/21 10:12:52;;;;;;;35.45;5.65;;;;;;;5.48;77.51;99626.28;5027902;28;20052;-64
2022/02/21 10:15:23;;;;;;;27.45;4.32;;;;;;;5.55;78.00;99585.13;5033901;28;20043;-62
2022/02/21 10:17:49;;;;;;;34.22;5.13;;;;;;;5.52;78.64;99596.56;5038615;28;20123;-62
2022/02/21 10:20:16;;;;;;;32.22;4.70;;;;;;;5.49;79.32;99588.81;5037689;28;20438;-63
2022/02/21 10:23:02;;;;;;;41.97;6.53;;;;;;;5.37;79.74;99576.16;5041723;28;20096;-63
2022/02/21 10:25:27;;;;;;;37.42;4.55;;;;;;;5.40;80.46;99613.47;5037478;28;20025;-62
2022/02/21 10:27:53;;;;;;;29.23;5.32;;;;;;;5.39;80.34;99608.31;5037212;28;20032;-62
2022/02/21 10:30:19;;;;;;;35.10;5.20;;;;;;;5.50;79.99;99587.03;5037374;28;20026;-64
2022/02/21 10:32:47;;;;;;;35.97;5.22;;;;;;;5.56;79.36;99603.38;5038307;28;20016;-64
2022/02/21 10:35:23;;;;;;;38.55;5.95;;;;;;;5.62;79.08;99623.22;5036646;28;20057;-57
2022/02/21 10:37:59;;;;;;;47.17;6.45;;;;;;;5.69;79.12;99635.19;5029525;28;20037;-59
2022/02/21 10:40:29;;;;;;;34.00;5.03;;;;;;;5.73;79.49;99604.59;5030982;28;20033;-58
2022/02/21 10:43:26;;;;;;;32.13;4.68;;;;;;;5.79;79.56;99627.03;5025590;28;20368;-59
2022/02/21 10:45:51;;;;;;;31.27;4.60;;;;;;;5.82;80.17;99632.16;5026846;28;20044;-57
2022/02/21 10:48:20;;;;;;;37.97;5.80;;;;;;;5.80;80.20;99619.16;5028973;28;20033;-57
2022/02/21 10:50:57;;;;;;;32.47;5.55;;;;;;;5.80;80.38;99616.53;5028884;28;20029;-57
2022/02/21 10:53:23;;;;;;;36.55;4.80;;;;;;;5.79;80.95;99624.44;5034270;28;20025;-59
2022/02/21 10:55:50;;;;;;;41.28;5.07;;;;;;;5.82;81.19;99626.94;5028911;28;20022;-60
2022/02/21 10:58:34;;;;;;;44.35;6.32;;;;;;;5.88;81.54;99628.50;5028824;28;20113;-63
2022/02/21 11:01:01;;;;;;;30.40;4.88;;;;;;;5.93;81.47;99637.88;5029178;28;20480;-62
2022/02/21 11:03:28;;;;;;;30.60;4.47;;;;;;;5.94;81.05;99634.34;5029144;28;20025;-62
2022/02/21 11:05:55;;;;;;;38.03;4.10;;;;;;;6.01;80.22;99632.41;5027375;28;20472;-61
2022/02/21 11:08:21;;;;;;;41.88;5.22;;;;;;;6.14;79.87;99655.56;5031191;28;20074;-61
2022/02/21 11:10:52;;;;;;;28.92;4.82;;;;;;;6.29;79.80;99610.53;5058948;28;20387;-62
2022/02/21 11:13:18;;;;;;;29.98;4.50;;;;;;;6.39;79.46;99638.97;5036415;28;20100;-62
2022/02/21 11:15:44;;;;;;;29.48;5.60;;;;;;;6.49;78.51;99642.97;5037264;28;20032;-62
2022/02/21 11:18:12;;;;;;;40.90;5.22;;;;;;;6.66;78.66;99665.06;5048186;28;20400;-61
2022/02/21 11:20:37;;;;;;;33.20;5.72;;;;;;;6.68;78.77;99658.00;5045979;28;20537;-61
2022/02/21 11:23:03;;;;;;;29.15;4.43;;;;;;;6.66;79.52;99636.28;5035956;28;20112;-63
2022/02/21 11:25:35;;;;;;;37.83;4.63;;;;;;;6.55;79.84;99618.34;5047323;28;20021;-61
2022/02/21 11:28:11;;;;;;;32.05;5.03;;;;;;;6.51;80.36;99656.00;5040273;28;20022;-62